sensor_id;sensor_type;location;lat;lon;timestamp;P1;durP1;ratioP1;P2;durP2;ratioP2
15261;SDS011;7733;51.554;13.590;2023-04-24T00:00:13;3.50;;;3.17;;
15261;SDS011;7733;51.554;13.590;2023-04-24T00:02:43;3.00;;;2.90;;
15261;SDS011;7733;51.554;13.590;2023-04-24T00:05:12;3.10;;;3.00;;
15261;SDS011;7733;51.554;13.590;2023-04-24T00:07:39;3.23;;;3.13;;
15261;SDS011;7733;51.554;13.590;2023-04-24T00:10:06;3.40;;;3.10;;
15261;SDS011;7733;51.554;13.590;2023-04-24T00:12:33;3.13;;;3.03;;
15261;SDS011;7733;51.554;13.590;2023-04-24T00:14:59;3.37;;;3.10;;
15261;SDS011;7733;51.554;13.590;2023-04-24T00:17:25;2.77;;;2.67;;
15261;SDS011;7733;51.554;13.590;2023-04-24T00:19:51;3.60;;;3.40;;
15261;SDS011;7733;51.554;13.590;2023-04-24T00:22:23;3.60;;;3.47;;
15261;SDS011;7733;51.554;13.590;2023-04-24T00:24:50;3.53;;;3.37;;
15261;SDS011;7733;51.554;13.590;2023-04-24T00:27:16;3.67;;;3.47;;
15261;SDS011;7733;51.554;13.590;2023-04-24T00:29:41;3.57;;;3.37;;
15261;SDS011;7733;51.554;13.590;2023-04-24T00:32:07;3.30;;;3.20;;
15261;SDS011;7733;51.554;13.590;2023-04-24T00:34:33;3.40;;;3.20;;
15261;SDS011;7733;51.554;13.590;2023-04-24T00:36:59;3.20;;;3.00;;
15261;SDS011;7733;51.554;13.590;2023-04-24T00:39:25;3.80;;;3.50;;
15261;SDS011;7733;51.554;13.590;2023-04-24T00:41:50;3.10;;;3.00;;
15261;SDS011;7733;51.554;13.590;2023-04-24T00:44:17;4.00;;;3.70;;
15261;SDS011;7733;51.554;13.590;2023-04-24T00:46:43;3.50;;;3.30;;
15261;SDS011;7733;51.554;13.590;2023-04-24T00:49:10;3.80;;;3.40;;
15261;SDS011;7733;51.554;13.590;2023-04-24T00:51:37;4.63;;;4.33;;
15261;SDS011;7733;51.554;13.590;2023-04-24T00:54:03;3.70;;;3.50;;
15261;SDS011;7733;51.554;13.590;2023-04-24T00:56:28;3.97;;;3.77;;
15261;SDS011;7733;51.554;13.590;2023-04-24T00:58:55;3.80;;;3.50;;
15261;SDS011;7733;51.554;13.590;2023-04-24T01:01:21;3.90;;;3.77;;
15261;SDS011;7733;51.554;13.590;2023-04-24T01:03:49;4.00;;;3.90;;
15261;SDS011;7733;51.554;13.590;2023-04-24T01:06:16;5.60;;;5.30;;
15261;SDS011;7733;51.554;13.590;2023-04-24T01:08:45;4.93;;;4.60;;
15261;SDS011;7733;51.554;13.590;2023-04-24T01:11:12;4.70;;;4.50;;
15261;SDS011;7733;51.554;13.590;2023-04-24T01:13:39;4.10;;;3.90;;
15261;SDS011;7733;51.554;13.590;2023-04-24T01:16:05;4.30;;;4.10;;
15261;SDS011;7733;51.554;13.590;2023-04-24T01:18:31;3.90;;;3.70;;
15261;SDS011;7733;51.554;13.590;2023-04-24T01:20:58;4.63;;;4.43;;
15261;SDS011;7733;51.554;13.590;2023-04-24T01:23:28;4.23;;;4.00;;
15261;SDS011;7733;51.554;13.590;2023-04-24T01:25:54;4.73;;;4.53;;
15261;SDS011;7733;51.554;13.590;2023-04-24T01:28:20;4.80;;;4.50;;
15261;SDS011;7733;51.554;13.590;2023-04-24T01:30:46;4.00;;;3.80;;
15261;SDS011;7733;51.554;13.590;2023-04-24T01:33:13;4.10;;;3.93;;
15261;SDS011;7733;51.554;13.590;2023-04-24T01:35:39;4.03;;;3.83;;
15261;SDS011;7733;51.554;13.590;2023-04-24T01:38:05;4.30;;;4.10;;
15261;SDS011;7733;51.554;13.590;2023-04-24T01:40:32;4.73;;;4.47;;
15261;SDS011;7733;51.554;13.590;2023-04-24T01:42:58;4.50;;;4.30;;
15261;SDS011;7733;51.554;13.590;2023-04-24T01:45:24;5.07;;;4.67;;
15261;SDS011;7733;51.554;13.590;2023-04-24T01:47:50;4.30;;;4.00;;
15261;SDS011;7733;51.554;13.590;2023-04-24T01:50:16;4.90;;;4.70;;
15261;SDS011;7733;51.554;13.590;2023-04-24T01:52:43;5.03;;;4.73;;
15261;SDS011;7733;51.554;13.590;2023-04-24T01:55:09;4.90;;;4.60;;
15261;SDS011;7733;51.554;13.590;2023-04-24T01:57:35;4.97;;;4.73;;
15261;SDS011;7733;51.554;13.590;2023-04-24T02:00:02;4.47;;;4.27;;
15261;SDS011;7733;51.554;13.590;2023-04-24T02:02:32;4.63;;;4.43;;
15261;SDS011;7733;51.554;13.590;2023-04-24T02:04:58;5.67;;;5.37;;
15261;SDS011;7733;51.554;13.590;2023-04-24T02:07:24;5.17;;;4.97;;
15261;SDS011;7733;51.554;13.590;2023-04-24T02:09:50;5.50;;;5.10;;
15261;SDS011;7733;51.554;13.590;2023-04-24T02:12:16;5.57;;;5.20;;
15261;SDS011;7733;51.554;13.590;2023-04-24T02:14:42;5.53;;;5.13;;
15261;SDS011;7733;51.554;13.590;2023-04-24T02:17:09;5.60;;;5.20;;
15261;SDS011;7733;51.554;13.590;2023-04-24T02:19:37;5.40;;;5.10;;
15261;SDS011;7733;51.554;13.590;2023-04-24T02:22:02;5.70;;;5.20;;
15261;SDS011;7733;51.554;13.590;2023-04-24T02:24:28;5.30;;;5.00;;
15261;SDS011;7733;51.554;13.590;2023-04-24T02:26:54;5.77;;;5.37;;
15261;SDS011;7733;51.554;13.590;2023-04-24T02:29:20;5.30;;;5.10;;
15261;SDS011;7733;51.554;13.590;2023-04-24T02:31:46;5.60;;;5.27;;
15261;SDS011;7733;51.554;13.590;2023-04-24T02:34:12;5.33;;;5.03;;
15261;SDS011;7733;51.554;13.590;2023-04-24T02:36:37;5.63;;;5.33;;
15261;SDS011;7733;51.554;13.590;2023-04-24T02:39:03;5.03;;;4.77;;
15261;SDS011;7733;51.554;13.590;2023-04-24T02:41:29;5.20;;;4.93;;
15261;SDS011;7733;51.554;13.590;2023-04-24T02:43:57;5.43;;;5.10;;
15261;SDS011;7733;51.554;13.590;2023-04-24T02:46:23;5.37;;;5.03;;
15261;SDS011;7733;51.554;13.590;2023-04-24T02:48:50;5.80;;;5.30;;
15261;SDS011;7733;51.554;13.590;2023-04-24T02:51:15;5.57;;;5.23;;
15261;SDS011;7733;51.554;13.590;2023-04-24T02:53:41;5.60;;;5.30;;
15261;SDS011;7733;51.554;13.590;2023-04-24T02:56:07;5.40;;;5.10;;
15261;SDS011;7733;51.554;13.590;2023-04-24T02:58:32;5.67;;;5.33;;
15261;SDS011;7733;51.554;13.590;2023-04-24T03:00:58;5.67;;;5.30;;
15261;SDS011;7733;51.554;13.590;2023-04-24T03:03:25;5.93;;;5.53;;
15261;SDS011;7733;51.554;13.590;2023-04-24T03:05:51;5.23;;;5.03;;
15261;SDS011;7733;51.554;13.590;2023-04-24T03:08:17;5.17;;;4.80;;
15261;SDS011;7733;51.554;13.590;2023-04-24T03:10:43;5.13;;;4.93;;
15261;SDS011;7733;51.554;13.590;2023-04-24T03:13:09;5.40;;;5.10;;
15261;SDS011;7733;51.554;13.590;2023-04-24T03:15:35;4.63;;;4.37;;
15261;SDS011;7733;51.554;13.590;2023-04-24T03:18:00;4.47;;;4.27;;
15261;SDS011;7733;51.554;13.590;2023-04-24T03:20:27;3.83;;;3.63;;
15261;SDS011;7733;51.554;13.590;2023-04-24T03:22:53;3.83;;;3.63;;
15261;SDS011;7733;51.554;13.590;2023-04-24T03:25:19;3.53;;;3.37;;
15261;SDS011;7733;51.554;13.590;2023-04-24T03:27:45;3.20;;;3.10;;
15261;SDS011;7733;51.554;13.590;2023-04-24T03:30:11;3.23;;;3.07;;
15261;SDS011;7733;51.554;13.590;2023-04-24T03:32:37;2.93;;;2.73;;
15261;SDS011;7733;51.554;13.590;2023-04-24T03:35:04;2.90;;;2.80;;
15261;SDS011;7733;51.554;13.590;2023-04-24T03:37:32;2.70;;;2.60;;
15261;SDS011;7733;51.554;13.590;2023-04-24T03:39:58;3.00;;;2.90;;
15261;SDS011;7733;51.554;13.590;2023-04-24T03:42:24;2.50;;;2.40;;
15261;SDS011;7733;51.554;13.590;2023-04-24T03:44:50;2.70;;;2.50;;
15261;SDS011;7733;51.554;13.590;2023-04-24T03:47:15;2.27;;;2.13;;
15261;SDS011;7733;51.554;13.590;2023-04-24T03:49:41;2.70;;;2.60;;
15261;SDS011;7733;51.554;13.590;2023-04-24T03:52:07;2.60;;;2.50;;
15261;SDS011;7733;51.554;13.590;2023-04-24T03:54:32;2.27;;;2.17;;
15261;SDS011;7733;51.554;13.590;2023-04-24T03:56:58;2.40;;;2.30;;
15261;SDS011;7733;51.554;13.590;2023-04-24T03:59:24;2.20;;;2.10;;
15261;SDS011;7733;51.554;13.590;2023-04-24T04:01:50;2.73;;;1.90;;
15261;SDS011;7733;51.554;13.590;2023-04-24T04:04:16;2.03;;;1.93;;
15261;SDS011;7733;51.554;13.590;2023-04-24T04:06:42;2.07;;;1.97;;
15261;SDS011;7733;51.554;13.590;2023-04-24T04:09:09;2.40;;;1.80;;
15261;SDS011;7733;51.554;13.590;2023-04-24T04:11:35;1.60;;;1.50;;
15261;SDS011;7733;51.554;13.590;2023-04-24T04:14:01;1.80;;;1.70;;
15261;SDS011;7733;51.554;13.590;2023-04-24T04:16:27;1.77;;;1.67;;
15261;SDS011;7733;51.554;13.590;2023-04-24T04:18:53;1.70;;;1.60;;
15261;SDS011;7733;51.554;13.590;2023-04-24T04:21:19;1.80;;;1.70;;
15261;SDS011;7733;51.554;13.590;2023-04-24T04:23:44;2.80;;;2.70;;
15261;SDS011;7733;51.554;13.590;2023-04-24T04:26:11;1.97;;;1.87;;
15261;SDS011;7733;51.554;13.590;2023-04-24T04:28:37;1.50;;;1.40;;
15261;SDS011;7733;51.554;13.590;2023-04-24T04:31:04;1.90;;;1.80;;
15261;SDS011;7733;51.554;13.590;2023-04-24T04:33:32;1.50;;;1.50;;
15261;SDS011;7733;51.554;13.590;2023-04-24T04:36:01;1.57;;;1.47;;
15261;SDS011;7733;51.554;13.590;2023-04-24T04:38:27;1.70;;;1.57;;
15261;SDS011;7733;51.554;13.590;2023-04-24T04:40:55;1.50;;;1.40;;
15261;SDS011;7733;51.554;13.590;2023-04-24T04:43:22;1.83;;;1.53;;
15261;SDS011;7733;51.554;13.590;2023-04-24T04:45:49;1.70;;;1.40;;
15261;SDS011;7733;51.554;13.590;2023-04-24T04:48:16;1.13;;;1.13;;
15261;SDS011;7733;51.554;13.590;2023-04-24T04:50:43;1.17;;;1.17;;
15261;SDS011;7733;51.554;13.590;2023-04-24T04:53:09;2.03;;;1.37;;
15261;SDS011;7733;51.554;13.590;2023-04-24T04:55:35;1.20;;;1.20;;
15261;SDS011;7733;51.554;13.590;2023-04-24T04:58:02;1.27;;;1.27;;
15261;SDS011;7733;51.554;13.590;2023-04-24T05:00:28;1.53;;;1.43;;
15261;SDS011;7733;51.554;13.590;2023-04-24T05:02:58;1.60;;;1.30;;
15261;SDS011;7733;51.554;13.590;2023-04-24T05:05:25;1.43;;;1.33;;
15261;SDS011;7733;51.554;13.590;2023-04-24T05:07:50;1.47;;;1.30;;
15261;SDS011;7733;51.554;13.590;2023-04-24T05:10:16;1.20;;;1.10;;
15261;SDS011;7733;51.554;13.590;2023-04-24T05:12:42;1.40;;;1.30;;
15261;SDS011;7733;51.554;13.590;2023-04-24T05:15:08;2.20;;;1.10;;
15261;SDS011;7733;51.554;13.590;2023-04-24T05:17:34;1.60;;;1.07;;
15261;SDS011;7733;51.554;13.590;2023-04-24T05:20:01;2.23;;;1.10;;
15261;SDS011;7733;51.554;13.590;2023-04-24T05:22:30;1.83;;;1.23;;
15261;SDS011;7733;51.554;13.590;2023-04-24T05:24:56;1.23;;;1.23;;
15261;SDS011;7733;51.554;13.590;2023-04-24T05:27:22;1.10;;;1.10;;
15261;SDS011;7733;51.554;13.590;2023-04-24T05:29:49;1.33;;;1.23;;
15261;SDS011;7733;51.554;13.590;2023-04-24T05:32:15;1.00;;;1.00;;
15261;SDS011;7733;51.554;13.590;2023-04-24T05:34:40;1.40;;;1.30;;
15261;SDS011;7733;51.554;13.590;2023-04-24T05:37:06;1.13;;;1.13;;
15261;SDS011;7733;51.554;13.590;2023-04-24T05:39:34;1.00;;;1.00;;
15261;SDS011;7733;51.554;13.590;2023-04-24T05:42:01;1.13;;;0.93;;
15261;SDS011;7733;51.554;13.590;2023-04-24T05:44:28;0.90;;;0.90;;
15261;SDS011;7733;51.554;13.590;2023-04-24T05:46:54;0.93;;;0.93;;
15261;SDS011;7733;51.554;13.590;2023-04-24T05:49:20;1.00;;;0.90;;
15261;SDS011;7733;51.554;13.590;2023-04-24T05:51:46;0.80;;;0.80;;
15261;SDS011;7733;51.554;13.590;2023-04-24T05:54:12;1.00;;;0.97;;
15261;SDS011;7733;51.554;13.590;2023-04-24T05:56:38;1.60;;;1.00;;
15261;SDS011;7733;51.554;13.590;2023-04-24T05:59:05;1.10;;;1.00;;
15261;SDS011;7733;51.554;13.590;2023-04-24T06:01:30;0.97;;;0.97;;
15261;SDS011;7733;51.554;13.590;2023-04-24T06:03:56;1.43;;;1.00;;
15261;SDS011;7733;51.554;13.590;2023-04-24T06:06:23;1.00;;;1.00;;
15261;SDS011;7733;51.554;13.590;2023-04-24T06:08:49;0.73;;;0.73;;
15261;SDS011;7733;51.554;13.590;2023-04-24T06:11:15;0.80;;;0.70;;
15261;SDS011;7733;51.554;13.590;2023-04-24T06:13:41;1.87;;;1.00;;
15261;SDS011;7733;51.554;13.590;2023-04-24T06:16:07;0.80;;;0.80;;
15261;SDS011;7733;51.554;13.590;2023-04-24T06:18:33;1.23;;;0.80;;
15261;SDS011;7733;51.554;13.590;2023-04-24T06:20:58;1.00;;;0.97;;
15261;SDS011;7733;51.554;13.590;2023-04-24T06:23:24;1.10;;;1.10;;
15261;SDS011;7733;51.554;13.590;2023-04-24T06:25:50;1.33;;;0.87;;
15261;SDS011;7733;51.554;13.590;2023-04-24T06:28:16;2.20;;;1.00;;
15261;SDS011;7733;51.554;13.590;2023-04-24T06:30:42;1.50;;;1.40;;
15261;SDS011;7733;51.554;13.590;2023-04-24T06:33:08;1.00;;;1.00;;
15261;SDS011;7733;51.554;13.590;2023-04-24T06:35:35;1.07;;;1.03;;
15261;SDS011;7733;51.554;13.590;2023-04-24T06:38:02;0.90;;;0.90;;
15261;SDS011;7733;51.554;13.590;2023-04-24T06:40:28;1.20;;;1.10;;
15261;SDS011;7733;51.554;13.590;2023-04-24T06:42:54;2.07;;;1.10;;
15261;SDS011;7733;51.554;13.590;2023-04-24T06:45:20;0.90;;;0.90;;
15261;SDS011;7733;51.554;13.590;2023-04-24T06:47:46;1.80;;;1.00;;
15261;SDS011;7733;51.554;13.590;2023-04-24T06:50:12;1.07;;;1.07;;
15261;SDS011;7733;51.554;13.590;2023-04-24T06:52:38;1.00;;;1.00;;
15261;SDS011;7733;51.554;13.590;2023-04-24T06:55:04;0.97;;;0.97;;
15261;SDS011;7733;51.554;13.590;2023-04-24T06:57:30;0.90;;;0.90;;
15261;SDS011;7733;51.554;13.590;2023-04-24T06:59:56;2.20;;;1.40;;
15261;SDS011;7733;51.554;13.590;2023-04-24T07:02:22;1.90;;;0.97;;
15261;SDS011;7733;51.554;13.590;2023-04-24T07:04:48;1.03;;;0.97;;
15261;SDS011;7733;51.554;13.590;2023-04-24T07:07:14;1.13;;;1.13;;
15261;SDS011;7733;51.554;13.590;2023-04-24T07:09:40;1.10;;;1.10;;
15261;SDS011;7733;51.554;13.590;2023-04-24T07:12:07;1.23;;;1.00;;
15261;SDS011;7733;51.554;13.590;2023-04-24T07:14:35;1.07;;;1.00;;
15261;SDS011;7733;51.554;13.590;2023-04-24T07:17:02;1.80;;;0.87;;
15261;SDS011;7733;51.554;13.590;2023-04-24T07:19:29;1.70;;;1.20;;
15261;SDS011;7733;51.554;13.590;2023-04-24T07:21:55;0.87;;;0.87;;
15261;SDS011;7733;51.554;13.590;2023-04-24T07:24:23;1.03;;;1.03;;
15261;SDS011;7733;51.554;13.590;2023-04-24T07:26:50;1.67;;;1.10;;
15261;SDS011;7733;51.554;13.590;2023-04-24T07:29:17;1.00;;;0.90;;
15261;SDS011;7733;51.554;13.590;2023-04-24T07:31:43;1.70;;;0.87;;
15261;SDS011;7733;51.554;13.590;2023-04-24T07:34:09;1.00;;;0.93;;
15261;SDS011;7733;51.554;13.590;2023-04-24T07:36:35;1.17;;;0.80;;
15261;SDS011;7733;51.554;13.590;2023-04-24T07:39:03;1.83;;;0.83;;
15261;SDS011;7733;51.554;13.590;2023-04-24T07:41:30;0.83;;;0.83;;
15261;SDS011;7733;51.554;13.590;2023-04-24T07:43:56;0.83;;;0.80;;
15261;SDS011;7733;51.554;13.590;2023-04-24T07:46:23;0.93;;;0.93;;
15261;SDS011;7733;51.554;13.590;2023-04-24T07:48:49;1.30;;;0.70;;
15261;SDS011;7733;51.554;13.590;2023-04-24T07:51:15;0.60;;;0.60;;
15261;SDS011;7733;51.554;13.590;2023-04-24T07:53:42;0.60;;;0.60;;
15261;SDS011;7733;51.554;13.590;2023-04-24T07:56:08;0.60;;;0.60;;
15261;SDS011;7733;51.554;13.590;2023-04-24T07:58:34;1.23;;;0.60;;
15261;SDS011;7733;51.554;13.590;2023-04-24T08:01:00;0.60;;;0.60;;
15261;SDS011;7733;51.554;13.590;2023-04-24T08:03:26;0.70;;;0.70;;
15261;SDS011;7733;51.554;13.590;2023-04-24T08:05:52;1.43;;;0.70;;
15261;SDS011;7733;51.554;13.590;2023-04-24T08:08:19;0.63;;;0.50;;
15261;SDS011;7733;51.554;13.590;2023-04-24T08:10:47;0.70;;;0.60;;
15261;SDS011;7733;51.554;13.590;2023-04-24T08:13:14;0.60;;;0.60;;
15261;SDS011;7733;51.554;13.590;2023-04-24T08:15:40;0.80;;;0.60;;
15261;SDS011;7733;51.554;13.590;2023-04-24T08:18:05;1.33;;;0.60;;
15261;SDS011;7733;51.554;13.590;2023-04-24T08:20:32;0.50;;;0.50;;
15261;SDS011;7733;51.554;13.590;2023-04-24T08:22:57;0.77;;;0.70;;
15261;SDS011;7733;51.554;13.590;2023-04-24T08:25:23;0.50;;;0.50;;
15261;SDS011;7733;51.554;13.590;2023-04-24T08:27:49;1.83;;;0.80;;
15261;SDS011;7733;51.554;13.590;2023-04-24T08:30:16;0.70;;;0.70;;
15261;SDS011;7733;51.554;13.590;2023-04-24T08:32:43;1.03;;;0.93;;
15261;SDS011;7733;51.554;13.590;2023-04-24T08:35:08;0.80;;;0.67;;
15261;SDS011;7733;51.554;13.590;2023-04-24T08:37:35;1.27;;;0.80;;
15261;SDS011;7733;51.554;13.590;2023-04-24T08:40:02;0.93;;;0.93;;
15261;SDS011;7733;51.554;13.590;2023-04-24T08:42:41;1.80;;;0.60;;
15261;SDS011;7733;51.554;13.590;2023-04-24T08:45:09;0.60;;;0.60;;
15261;SDS011;7733;51.554;13.590;2023-04-24T08:47:37;0.60;;;0.60;;
15261;SDS011;7733;51.554;13.590;2023-04-24T08:50:05;0.77;;;0.60;;
15261;SDS011;7733;51.554;13.590;2023-04-24T08:52:33;0.60;;;0.60;;
15261;SDS011;7733;51.554;13.590;2023-04-24T08:55:00;0.60;;;0.60;;
15261;SDS011;7733;51.554;13.590;2023-04-24T08:57:27;0.67;;;0.67;;
15261;SDS011;7733;51.554;13.590;2023-04-24T08:59:54;0.40;;;0.40;;
15261;SDS011;7733;51.554;13.590;2023-04-24T09:02:22;0.67;;;0.67;;
15261;SDS011;7733;51.554;13.590;2023-04-24T09:04:49;1.67;;;0.53;;
15261;SDS011;7733;51.554;13.590;2023-04-24T09:07:17;0.47;;;0.47;;
15261;SDS011;7733;51.554;13.590;2023-04-24T09:09:44;0.97;;;0.70;;
15261;SDS011;7733;51.554;13.590;2023-04-24T09:12:10;2.20;;;0.77;;
15261;SDS011;7733;51.554;13.590;2023-04-24T09:14:37;0.50;;;0.50;;
15261;SDS011;7733;51.554;13.590;2023-04-24T09:17:07;1.13;;;0.70;;
15261;SDS011;7733;51.554;13.590;2023-04-24T09:19:33;1.03;;;0.73;;
15261;SDS011;7733;51.554;13.590;2023-04-24T09:21:58;0.97;;;0.70;;
15261;SDS011;7733;51.554;13.590;2023-04-24T09:24:24;0.90;;;0.90;;
15261;SDS011;7733;51.554;13.590;2023-04-24T09:26:57;0.83;;;0.80;;
15261;SDS011;7733;51.554;13.590;2023-04-24T09:29:24;0.80;;;0.80;;
15261;SDS011;7733;51.554;13.590;2023-04-24T09:31:50;0.80;;;0.80;;
15261;SDS011;7733;51.554;13.590;2023-04-24T09:34:20;0.60;;;0.60;;
15261;SDS011;7733;51.554;13.590;2023-04-24T09:36:49;0.70;;;0.70;;
15261;SDS011;7733;51.554;13.590;2023-04-24T09:39:16;0.93;;;0.80;;
15261;SDS011;7733;51.554;13.590;2023-04-24T09:41:54;0.60;;;0.60;;
15261;SDS011;7733;51.554;13.590;2023-04-24T09:44:26;0.80;;;0.63;;
15261;SDS011;7733;51.554;13.590;2023-04-24T09:46:59;1.30;;;0.90;;
15261;SDS011;7733;51.554;13.590;2023-04-24T09:49:31;1.07;;;0.60;;
15261;SDS011;7733;51.554;13.590;2023-04-24T09:52:09;0.83;;;0.60;;
15261;SDS011;7733;51.554;13.590;2023-04-24T09:54:36;1.70;;;0.80;;
15261;SDS011;7733;51.554;13.590;2023-04-24T09:57:03;0.90;;;0.90;;
15261;SDS011;7733;51.554;13.590;2023-04-24T09:59:32;1.17;;;0.70;;
15261;SDS011;7733;51.554;13.590;2023-04-24T10:01:59;0.90;;;0.90;;
15261;SDS011;7733;51.554;13.590;2023-04-24T10:04:26;1.17;;;0.60;;
15261;SDS011;7733;51.554;13.590;2023-04-24T10:06:54;0.40;;;0.40;;
15261;SDS011;7733;51.554;13.590;2023-04-24T10:09:23;0.60;;;0.60;;
15261;SDS011;7733;51.554;13.590;2023-04-24T10:11:52;1.27;;;0.90;;
15261;SDS011;7733;51.554;13.590;2023-04-24T10:14:20;0.53;;;0.53;;
15261;SDS011;7733;51.554;13.590;2023-04-24T10:16:49;0.83;;;0.60;;
15261;SDS011;7733;51.554;13.590;2023-04-24T10:19:17;0.70;;;0.70;;
15261;SDS011;7733;51.554;13.590;2023-04-24T10:21:44;0.80;;;0.80;;
15261;SDS011;7733;51.554;13.590;2023-04-24T10:24:14;0.70;;;0.70;;
15261;SDS011;7733;51.554;13.590;2023-04-24T10:26:42;1.10;;;0.70;;
15261;SDS011;7733;51.554;13.590;2023-04-24T10:29:13;1.03;;;0.80;;
15261;SDS011;7733;51.554;13.590;2023-04-24T10:31:42;1.87;;;0.70;;
15261;SDS011;7733;51.554;13.590;2023-04-24T10:34:10;1.73;;;0.67;;
15261;SDS011;7733;51.554;13.590;2023-04-24T10:36:38;0.53;;;0.53;;
15261;SDS011;7733;51.554;13.590;2023-04-24T10:39:12;3.70;;;0.83;;
15261;SDS011;7733;51.554;13.590;2023-04-24T10:41:40;1.23;;;0.63;;
15261;SDS011;7733;51.554;13.590;2023-04-24T10:44:07;1.80;;;0.50;;
15261;SDS011;7733;51.554;13.590;2023-04-24T10:46:38;1.63;;;0.50;;
15261;SDS011;7733;51.554;13.590;2023-04-24T10:49:11;0.70;;;0.70;;
15261;SDS011;7733;51.554;13.590;2023-04-24T10:51:47;1.30;;;0.47;;
15261;SDS011;7733;51.554;13.590;2023-04-24T10:55:01;1.80;;;0.60;;
15261;SDS011;7733;51.554;13.590;2023-04-24T10:59:48;0.50;;;0.50;;
15261;SDS011;7733;51.554;13.590;2023-04-24T11:02:37;1.23;;;0.60;;
15261;SDS011;7733;51.554;13.590;2023-04-24T11:05:05;0.50;;;0.50;;
15261;SDS011;7733;51.554;13.590;2023-04-24T11:10:39;0.40;;;0.40;;
15261;SDS011;7733;51.554;13.590;2023-04-24T11:13:10;0.53;;;0.53;;
15261;SDS011;7733;51.554;13.590;2023-04-24T11:15:46;0.87;;;0.60;;
15261;SDS011;7733;51.554;13.590;2023-04-24T11:18:40;1.50;;;0.70;;
15261;SDS011;7733;51.554;13.590;2023-04-24T11:21:17;0.83;;;0.83;;
15261;SDS011;7733;51.554;13.590;2023-04-24T11:23:44;0.80;;;0.80;;
15261;SDS011;7733;51.554;13.590;2023-04-24T11:26:12;1.03;;;0.70;;
15261;SDS011;7733;51.554;13.590;2023-04-24T11:28:46;0.87;;;0.70;;
15261;SDS011;7733;51.554;13.590;2023-04-24T11:34:11;0.50;;;0.50;;
15261;SDS011;7733;51.554;13.590;2023-04-24T11:36:39;1.43;;;0.40;;
15261;SDS011;7733;51.554;13.590;2023-04-24T11:39:12;2.57;;;0.70;;
15261;SDS011;7733;51.554;13.590;2023-04-24T11:41:39;1.30;;;0.70;;
15261;SDS011;7733;51.554;13.590;2023-04-24T11:44:08;0.70;;;0.70;;
15261;SDS011;7733;51.554;13.590;2023-04-24T11:46:36;1.97;;;0.63;;
15261;SDS011;7733;51.554;13.590;2023-04-24T11:49:04;0.50;;;0.50;;
15261;SDS011;7733;51.554;13.590;2023-04-24T11:51:31;0.53;;;0.53;;
15261;SDS011;7733;51.554;13.590;2023-04-24T11:53:57;1.57;;;0.80;;
15261;SDS011;7733;51.554;13.590;2023-04-24T11:56:24;0.70;;;0.70;;
15261;SDS011;7733;51.554;13.590;2023-04-24T11:58:53;0.50;;;0.50;;
15261;SDS011;7733;51.554;13.590;2023-04-24T12:01:19;2.47;;;0.90;;
15261;SDS011;7733;51.554;13.590;2023-04-24T12:03:49;0.70;;;0.70;;
15261;SDS011;7733;51.554;13.590;2023-04-24T12:06:19;0.57;;;0.57;;
15261;SDS011;7733;51.554;13.590;2023-04-24T12:08:45;0.63;;;0.60;;
15261;SDS011;7733;51.554;13.590;2023-04-24T12:11:14;0.87;;;0.57;;
15261;SDS011;7733;51.554;13.590;2023-04-24T12:13:43;1.10;;;0.80;;
15261;SDS011;7733;51.554;13.590;2023-04-24T12:16:10;0.63;;;0.60;;
15261;SDS011;7733;51.554;13.590;2023-04-24T12:18:41;1.70;;;0.50;;
15261;SDS011;7733;51.554;13.590;2023-04-24T12:21:20;1.70;;;0.57;;
15261;SDS011;7733;51.554;13.590;2023-04-24T12:23:48;1.53;;;0.60;;
15261;SDS011;7733;51.554;13.590;2023-04-24T12:26:17;0.70;;;0.60;;
15261;SDS011;7733;51.554;13.590;2023-04-24T12:28:46;1.17;;;1.07;;
15261;SDS011;7733;51.554;13.590;2023-04-24T12:31:14;1.53;;;0.70;;
15261;SDS011;7733;51.554;13.590;2023-04-24T12:33:41;1.17;;;0.60;;
15261;SDS011;7733;51.554;13.590;2023-04-24T12:36:09;0.63;;;0.60;;
15261;SDS011;7733;51.554;13.590;2023-04-24T12:38:37;0.50;;;0.50;;
15261;SDS011;7733;51.554;13.590;2023-04-24T12:41:09;0.60;;;0.60;;
15261;SDS011;7733;51.554;13.590;2023-04-24T12:43:38;1.03;;;0.60;;
15261;SDS011;7733;51.554;13.590;2023-04-24T12:46:16;0.60;;;0.60;;
15261;SDS011;7733;51.554;13.590;2023-04-24T12:48:41;0.50;;;0.50;;
15261;SDS011;7733;51.554;13.590;2023-04-24T12:51:07;1.10;;;0.57;;
15261;SDS011;7733;51.554;13.590;2023-04-24T12:53:33;1.03;;;0.73;;
15261;SDS011;7733;51.554;13.590;2023-04-24T12:55:58;0.90;;;0.80;;
15261;SDS011;7733;51.554;13.590;2023-04-24T12:58:24;0.83;;;0.83;;
15261;SDS011;7733;51.554;13.590;2023-04-24T13:00:50;2.20;;;1.00;;
15261;SDS011;7733;51.554;13.590;2023-04-24T13:03:16;1.37;;;0.77;;
15261;SDS011;7733;51.554;13.590;2023-04-24T13:05:43;0.60;;;0.50;;
15261;SDS011;7733;51.554;13.590;2023-04-24T13:08:09;1.70;;;0.70;;
15261;SDS011;7733;51.554;13.590;2023-04-24T13:10:35;1.10;;;1.10;;
15261;SDS011;7733;51.554;13.590;2023-04-24T13:13:01;1.33;;;0.60;;
15261;SDS011;7733;51.554;13.590;2023-04-24T13:15:28;1.30;;;0.80;;
15261;SDS011;7733;51.554;13.590;2023-04-24T13:17:54;0.70;;;0.70;;
15261;SDS011;7733;51.554;13.590;2023-04-24T13:20:20;0.80;;;0.80;;
15261;SDS011;7733;51.554;13.590;2023-04-24T13:22:46;1.50;;;0.70;;
15261;SDS011;7733;51.554;13.590;2023-04-24T13:25:11;0.93;;;0.63;;
15261;SDS011;7733;51.554;13.590;2023-04-24T13:27:40;1.10;;;1.00;;
15261;SDS011;7733;51.554;13.590;2023-04-24T13:30:06;0.87;;;0.70;;
15261;SDS011;7733;51.554;13.590;2023-04-24T13:32:32;0.77;;;0.77;;
15261;SDS011;7733;51.554;13.590;2023-04-24T13:35:00;0.90;;;0.60;;
15261;SDS011;7733;51.554;13.590;2023-04-24T13:37:25;2.70;;;1.13;;
15261;SDS011;7733;51.554;13.590;2023-04-24T13:39:51;1.43;;;0.63;;
15261;SDS011;7733;51.554;13.590;2023-04-24T13:42:17;0.60;;;0.60;;
15261;SDS011;7733;51.554;13.590;2023-04-24T13:44:43;0.80;;;0.57;;
15261;SDS011;7733;51.554;13.590;2023-04-24T13:47:09;1.50;;;0.47;;
15261;SDS011;7733;51.554;13.590;2023-04-24T13:49:35;1.17;;;0.63;;
15261;SDS011;7733;51.554;13.590;2023-04-24T13:52:01;0.60;;;0.60;;
15261;SDS011;7733;51.554;13.590;2023-04-24T13:54:27;0.50;;;0.50;;
15261;SDS011;7733;51.554;13.590;2023-04-24T13:56:53;1.50;;;0.50;;
15261;SDS011;7733;51.554;13.590;2023-04-24T13:59:22;1.20;;;0.70;;
15261;SDS011;7733;51.554;13.590;2023-04-24T14:01:49;1.60;;;0.80;;
15261;SDS011;7733;51.554;13.590;2023-04-24T14:04:15;0.40;;;0.40;;
15261;SDS011;7733;51.554;13.590;2023-04-24T14:06:41;0.80;;;0.80;;
15261;SDS011;7733;51.554;13.590;2023-04-24T14:09:07;0.70;;;0.70;;
15261;SDS011;7733;51.554;13.590;2023-04-24T14:11:33;0.70;;;0.70;;
15261;SDS011;7733;51.554;13.590;2023-04-24T14:14:00;1.17;;;0.60;;
15261;SDS011;7733;51.554;13.590;2023-04-24T14:16:26;3.43;;;0.60;;
15261;SDS011;7733;51.554;13.590;2023-04-24T14:18:52;1.83;;;0.73;;
15261;SDS011;7733;51.554;13.590;2023-04-24T14:21:18;0.97;;;0.70;;
15261;SDS011;7733;51.554;13.590;2023-04-24T14:23:44;2.57;;;0.57;;
15261;SDS011;7733;51.554;13.590;2023-04-24T14:26:10;0.70;;;0.60;;
15261;SDS011;7733;51.554;13.590;2023-04-24T14:28:36;1.60;;;0.77;;
15261;SDS011;7733;51.554;13.590;2023-04-24T14:31:02;0.60;;;0.60;;
15261;SDS011;7733;51.554;13.590;2023-04-24T14:33:27;0.57;;;0.57;;
15261;SDS011;7733;51.554;13.590;2023-04-24T14:35:53;2.63;;;0.90;;
15261;SDS011;7733;51.554;13.590;2023-04-24T14:38:19;2.20;;;0.70;;
15261;SDS011;7733;51.554;13.590;2023-04-24T14:40:45;0.63;;;0.60;;
15261;SDS011;7733;51.554;13.590;2023-04-24T14:43:11;2.33;;;0.80;;
15261;SDS011;7733;51.554;13.590;2023-04-24T14:45:37;0.77;;;0.60;;
15261;SDS011;7733;51.554;13.590;2023-04-24T14:48:03;0.93;;;0.60;;
15261;SDS011;7733;51.554;13.590;2023-04-24T14:50:29;0.60;;;0.60;;
15261;SDS011;7733;51.554;13.590;2023-04-24T14:52:55;1.27;;;0.50;;
15261;SDS011;7733;51.554;13.590;2023-04-24T14:55:22;0.60;;;0.60;;